Airfield :
LOGIN :

Register | Disclaimer

   EN    FR    IT 

 










Legend :    VFR   Marginal VFR   IFR   Intensive IFR   Very Intensive IFR
Visi :
Ceiling :
>= 8 km
>= 3000ft
5 to 8 km
1000 to 3000 ft
1500m to 5 km
500 to 1000 ft
800 to 1500m
200 to 500 ft
< 800m
< 200 ft
Symbols :   Thunderstorms  Fog  Heavy snow  Heavy precipitations  Wind > 20 kt
SIGMETs :     Misc.  Thunderstorms  Icing  Turbulence  Mountain Waves  Volcanic Ashes






- Airport Elevation : 992 ft


LIRV - Roma Viterbo Air Force Base (military)

CURRENT METAR :
  • 280655Z 03008KT CAVOK 01/00 Q1018 RMK SKC MON E SE LIB NC VIS MIN 9999 WIND THR04/////KT BLU

EXPIRED METARs :
  • 280555Z 04008KT CAVOK 02/01 Q1019 RMK SKC MON E SE LIB VIS MIN 9999 WIND THR04/////KT BLU

TAF TAF LIRV
Valid from the 28 at 07:00 until the 28 at 15:00 UTC


280600Z 2807/2815 04007KT 9999 SCT035 SCT060



MET'MAP, your aeronautical weather chart ! - Copyright ORBIFLY December 2007 - Disclaimer

ORBIFLY MET'MAP TEAM :

Programming & Development : Alexandra Zaïnal
Original concept : Baudouin d'Aumeries
Technical & hardware support : Manuel Goepfert
Assistance : Marc-Olivier Méhu




SOURCES & CREDITS :

   NOAA